createdAt,value
2023-02-16T00:01:56.274Z,79.54
2023-02-16T00:04:26.433Z,79.53
2023-02-16T00:06:54.177Z,79.44
2023-02-16T00:09:21.673Z,79.39
2023-02-16T00:12:08.278Z,79.17
2023-02-16T00:14:37.231Z,79.25
2023-02-16T00:17:05.441Z,79.36
2023-02-16T00:19:40.322Z,79.71
2023-02-16T00:22:08.262Z,79.99
2023-02-16T00:24:35.583Z,79.74
2023-02-16T00:27:02.573Z,80.33
2023-02-16T00:29:35.104Z,80.40
2023-02-16T00:32:03.994Z,80.43
2023-02-16T00:34:36.506Z,80.33
2023-02-16T00:37:11.842Z,80.18
2023-02-16T00:39:40.260Z,80.04
2023-02-16T00:42:29.544Z,79.79
2023-02-16T00:44:58.086Z,79.79
2023-02-16T00:47:38.463Z,80.01
2023-02-16T00:50:27.969Z,80.00
2023-02-16T00:52:57.091Z,80.24
2023-02-16T00:55:27.395Z,80.06
2023-02-16T00:57:55.497Z,79.97
2023-02-16T01:00:42.337Z,80.79
2023-02-16T01:03:14.397Z,80.45
2023-02-16T01:05:41.216Z,80.51
2023-02-16T01:08:35.474Z,80.21
2023-02-16T01:11:10.045Z,80.27
2023-02-16T01:13:45.364Z,80.11
2023-02-16T01:16:18.796Z,79.84
2023-02-16T01:18:46.352Z,79.51
2023-02-16T01:21:13.192Z,79.37
2023-02-16T01:23:40.222Z,79.36
2023-02-16T01:26:14.824Z,79.61
2023-02-16T01:28:42.690Z,79.94
2023-02-16T01:31:13.667Z,80.29
2023-02-16T01:33:42.175Z,80.64
2023-02-16T01:36:25.674Z,80.49
2023-02-16T01:38:52.851Z,80.41
2023-02-16T01:41:37.722Z,80.36
2023-02-16T01:44:30.143Z,80.14
2023-02-16T01:47:23.149Z,80.46
2023-02-16T01:49:49.982Z,80.10
2023-02-16T01:52:41.693Z,80.05
2023-02-16T01:55:29.504Z,79.88
2023-02-16T01:58:25.278Z,79.85
2023-02-16T02:00:51.989Z,79.72
2023-02-16T02:03:46.315Z,79.70
2023-02-16T02:06:17.331Z,79.91
2023-02-16T02:09:12.597Z,80.28
2023-02-16T02:12:02.591Z,80.31
2023-02-16T02:14:35.607Z,80.36
2023-02-16T02:17:13.350Z,80.48
2023-02-16T02:20:04.223Z,80.30
2023-02-16T02:23:01.678Z,80.30
2023-02-16T02:26:11.136Z,80.11
2023-02-16T02:28:40.825Z,79.98
2023-02-16T02:31:16.495Z,79.81
2023-02-16T02:34:17.658Z,79.78
2023-02-16T02:37:05.519Z,79.75
2023-02-16T02:40:13.384Z,79.90
2023-02-16T02:42:48.651Z,80.00
2023-02-16T02:45:34.535Z,79.88
2023-02-16T02:48:01.556Z,79.76
2023-02-16T02:51:03.181Z,79.58
2023-02-16T02:53:30.848Z,79.50
2023-02-16T02:56:19.826Z,79.50
2023-02-16T02:59:12.323Z,79.30
2023-02-16T03:01:43.732Z,79.30
2023-02-16T03:04:14.462Z,79.55
2023-02-16T03:06:47.417Z,79.56
2023-02-16T03:09:16.076Z,79.56
2023-02-16T03:12:02.673Z,79.49
2023-02-16T03:14:33.671Z,79.52
2023-02-16T03:17:28.928Z,79.53
2023-02-16T03:20:17.040Z,79.62
2023-02-16T03:23:03.517Z,79.68
2023-02-16T03:25:52.368Z,79.82
2023-02-16T03:28:41.094Z,79.60
2023-02-16T03:31:12.352Z,79.73
2023-02-16T03:33:40.394Z,79.68
2023-02-16T03:36:08.087Z,79.74
2023-02-16T03:38:35.754Z,79.73
2023-02-16T03:41:02.861Z,79.66
2023-02-16T03:43:29.710Z,79.73
2023-02-16T03:45:56.533Z,79.68
2023-02-16T03:48:23.379Z,79.71
2023-02-16T03:50:50.116Z,79.78
2023-02-16T03:53:18.366Z,79.73
2023-02-16T03:55:49.101Z,79.78
2023-02-16T03:58:21.634Z,79.71
2023-02-16T04:00:48.928Z,79.79
2023-02-16T04:03:15.883Z,79.74
2023-02-16T04:05:43.244Z,79.59
2023-02-16T04:08:10.291Z,79.61
2023-02-16T04:10:38.810Z,79.60
2023-02-16T04:13:05.835Z,79.38
2023-02-16T04:15:33.025Z,79.27
2023-02-16T04:18:00.389Z,79.44
2023-02-16T04:20:29.931Z,79.70
2023-02-16T04:22:57.023Z,80.00
2023-02-16T04:25:24.169Z,80.07
2023-02-16T04:27:51.789Z,80.10
2023-02-16T04:30:23.663Z,80.01
2023-02-16T04:32:50.938Z,79.85
2023-02-16T04:35:19.148Z,79.80
2023-02-16T04:37:46.424Z,79.98
2023-02-16T04:40:15.551Z,79.83
2023-02-16T04:42:43.312Z,79.83
2023-02-16T04:45:11.414Z,79.91
2023-02-16T04:47:38.139Z,80.30
2023-02-16T04:50:05.634Z,80.73
2023-02-16T04:52:32.546Z,80.84
2023-02-16T04:54:59.563Z,80.77
2023-02-16T04:57:26.337Z,80.81
2023-02-16T04:59:53.139Z,80.81
2023-02-16T05:02:19.914Z,80.78
2023-02-16T05:04:46.753Z,81.39
2023-02-16T05:07:13.708Z,82.05
2023-02-16T05:09:40.548Z,81.25
2023-02-16T05:12:26.084Z,80.72
2023-02-16T05:14:52.858Z,80.75
2023-02-16T05:17:24.417Z,80.80
2023-02-16T05:19:57.330Z,80.83
2023-02-16T05:22:24.884Z,80.95
2023-02-16T05:24:52.364Z,80.85
2023-02-16T05:27:26.047Z,80.91
2023-02-16T05:29:53.005Z,80.98
2023-02-16T05:32:20.716Z,81.01
2023-02-16T05:34:47.958Z,81.01
2023-02-16T05:37:17.400Z,81.00
2023-02-16T05:39:44.754Z,80.92
2023-02-16T05:42:11.644Z,81.03
2023-02-16T05:44:38.838Z,80.86
2023-02-16T05:47:05.715Z,80.64
2023-02-16T05:49:32.587Z,80.50
2023-02-16T05:51:59.429Z,80.62
2023-02-16T05:54:27.974Z,80.59
2023-02-16T05:56:55.596Z,80.59
2023-02-16T05:59:22.517Z,80.48
2023-02-16T06:01:51.916Z,80.27
2023-02-16T06:04:20.286Z,80.23
2023-02-16T06:06:47.219Z,80.18
2023-02-16T06:09:13.978Z,79.99
2023-02-16T06:11:40.806Z,79.91
2023-02-16T06:14:08.864Z,79.71
2023-02-16T06:16:37.708Z,79.56
2023-02-16T06:19:05.205Z,79.46
2023-02-16T06:21:32.649Z,79.31
2023-02-16T06:23:59.472Z,79.17
2023-02-16T06:26:26.688Z,79.13
2023-02-16T06:28:53.836Z,79.03
2023-02-16T06:31:20.915Z,78.97
2023-02-16T06:33:48.018Z,78.51
2023-02-16T06:36:15.778Z,78.40
2023-02-16T06:38:43.000Z,78.06
2023-02-16T06:41:09.934Z,77.82
2023-02-16T06:43:36.844Z,77.59
2023-02-16T06:46:04.162Z,77.38
2023-02-16T06:48:31.087Z,77.46
2023-02-16T06:50:57.909Z,77.34
2023-02-16T06:53:25.548Z,77.32
2023-02-16T06:55:52.376Z,77.37
2023-02-16T06:58:19.247Z,77.49
2023-02-16T07:00:46.253Z,77.53
2023-02-16T07:03:13.521Z,77.23
2023-02-16T07:05:41.112Z,77.27
2023-02-16T07:08:08.416Z,77.02
2023-02-16T07:10:48.960Z,76.77
2023-02-16T07:13:16.837Z,76.57
2023-02-16T07:15:43.657Z,76.47
2023-02-16T07:18:10.464Z,76.28
2023-02-16T07:20:38.031Z,76.07
2023-02-16T07:23:04.983Z,76.30
2023-02-16T07:25:31.824Z,76.13
2023-02-16T07:27:59.055Z,75.95
2023-02-16T07:30:25.863Z,76.04
2023-02-16T07:32:52.753Z,75.93
2023-02-16T07:35:19.566Z,74.31
2023-02-16T07:37:46.381Z,74.16
2023-02-16T07:40:13.453Z,74.33
2023-02-16T07:42:40.316Z,75.12
2023-02-16T07:45:07.360Z,75.18
2023-02-16T07:47:34.455Z,75.39
2023-02-16T07:50:01.441Z,74.55
2023-02-16T07:52:31.250Z,75.37
2023-02-16T07:55:01.803Z,75.26
2023-02-16T07:57:29.416Z,74.88
2023-02-16T07:59:56.674Z,74.75
2023-02-16T08:02:24.481Z,74.67
2023-02-16T08:04:52.915Z,75.09
2023-02-16T08:07:21.309Z,76.02
2023-02-16T08:09:48.494Z,76.27
2023-02-16T08:12:16.739Z,75.60
2023-02-16T08:14:44.092Z,75.32
2023-02-16T08:17:10.951Z,74.15
2023-02-16T08:19:37.730Z,73.64
2023-02-16T08:22:05.878Z,73.15
2023-02-16T08:24:34.208Z,71.84
2023-02-16T08:27:03.867Z,70.92
2023-02-16T08:29:31.317Z,70.48
2023-02-16T08:31:58.535Z,69.07
2023-02-16T08:34:26.441Z,68.44
2023-02-16T08:36:56.639Z,66.64
2023-02-16T08:39:26.556Z,67.65
2023-02-16T08:41:54.699Z,67.13
2023-02-16T08:44:23.829Z,65.61
2023-02-16T08:46:52.459Z,66.75
2023-02-16T08:49:22.117Z,65.32
2023-02-16T08:51:52.246Z,66.07
2023-02-16T08:54:26.627Z,62.81
2023-02-16T08:56:55.449Z,62.71
2023-02-16T08:59:22.810Z,63.21
2023-02-16T09:01:50.000Z,64.21
2023-02-16T09:04:19.903Z,61.89
2023-02-16T09:06:48.544Z,61.79
2023-02-16T09:09:18.306Z,62.15
2023-02-16T09:11:46.137Z,61.57
2023-02-16T09:14:13.039Z,61.75
2023-02-16T09:16:45.435Z,60.93
2023-02-16T09:19:15.167Z,60.09
2023-02-16T09:21:42.666Z,58.41
2023-02-16T09:24:11.625Z,60.04
2023-02-16T09:26:41.339Z,58.73
2023-02-16T09:29:08.224Z,58.91
2023-02-16T09:31:37.544Z,58.77
2023-02-16T09:34:27.881Z,59.35
2023-02-16T09:36:54.823Z,58.64
2023-02-16T09:39:21.718Z,56.20
2023-02-16T09:41:54.117Z,56.18
2023-02-16T09:44:49.210Z,56.96
2023-02-16T09:47:29.560Z,56.27
2023-02-16T09:49:59.370Z,56.33
2023-02-16T09:52:41.090Z,54.91
2023-02-16T09:55:13.363Z,53.91
2023-02-16T09:58:21.713Z,53.95
2023-02-16T10:00:53.802Z,52.69
2023-02-16T10:03:49.865Z,53.25
2023-02-16T10:06:31.595Z,50.66
2023-02-16T10:09:04.313Z,50.82
2023-02-16T10:11:57.612Z,51.01
2023-02-16T10:14:34.838Z,49.54
2023-02-16T10:17:08.732Z,48.91
2023-02-16T10:19:46.805Z,49.07
2023-02-16T10:22:17.900Z,48.37
2023-02-16T10:24:57.776Z,47.54
2023-02-16T10:27:34.041Z,46.48
2023-02-16T10:30:00.882Z,46.50
2023-02-16T10:32:39.458Z,45.52
2023-02-16T10:35:17.539Z,45.98
2023-02-16T10:37:56.363Z,45.16
2023-02-16T10:40:36.070Z,45.18
2023-02-16T10:43:17.057Z,44.29
2023-02-16T10:45:52.507Z,44.50
2023-02-16T10:48:21.166Z,44.28
2023-02-16T10:51:12.830Z,44.69
2023-02-16T10:54:01.166Z,43.41
2023-02-16T10:56:46.445Z,44.20
2023-02-16T10:59:19.082Z,41.68
2023-02-16T11:01:57.872Z,43.53
2023-02-16T11:04:41.525Z,42.35
2023-02-16T11:07:14.331Z,42.77
2023-02-16T11:09:42.865Z,40.61
2023-02-16T11:12:39.548Z,40.63
2023-02-16T11:15:27.534Z,40.33
2023-02-16T11:18:05.930Z,40.45
2023-02-16T11:20:54.753Z,40.36
2023-02-16T11:23:31.916Z,41.67
2023-02-16T11:26:10.599Z,41.13
2023-02-16T11:28:45.940Z,39.20
2023-02-16T11:31:20.040Z,40.07
2023-02-16T11:33:58.051Z,40.70
2023-02-16T11:36:39.228Z,41.51
2023-02-16T11:39:23.210Z,39.98
2023-02-16T11:41:49.930Z,39.56
2023-02-16T11:44:38.843Z,38.45
2023-02-16T11:47:30.050Z,38.39
2023-02-16T11:50:46.574Z,38.24
2023-02-16T11:53:16.602Z,36.51
2023-02-16T11:55:48.726Z,37.60
2023-02-16T11:58:29.291Z,35.93
2023-02-16T12:00:59.087Z,36.02
2023-02-16T12:03:39.166Z,35.77
2023-02-16T12:06:24.471Z,35.54
2023-02-16T12:08:58.193Z,35.32
2023-02-16T12:11:46.044Z,35.64
2023-02-16T12:14:18.431Z,33.79
2023-02-16T12:16:59.297Z,35.47
2023-02-16T12:19:41.206Z,34.05
2023-02-16T12:22:07.976Z,34.60
2023-02-16T12:25:03.242Z,34.91
2023-02-16T12:27:49.348Z,34.31
2023-02-16T12:30:39.126Z,34.35
2023-02-16T12:33:29.691Z,33.79
2023-02-16T12:36:16.817Z,34.62
2023-02-16T12:38:52.120Z,34.17
2023-02-16T12:41:37.061Z,34.07
2023-02-16T12:44:10.969Z,32.85
2023-02-16T12:46:47.332Z,33.33
2023-02-16T12:49:37.530Z,32.58
2023-02-16T12:52:30.777Z,33.22
2023-02-16T12:55:16.906Z,32.57
2023-02-16T12:57:52.938Z,31.49
2023-02-16T13:00:38.624Z,30.90
2023-02-16T13:03:27.621Z,30.58
2023-02-16T13:06:10.259Z,30.95
2023-02-16T13:08:50.243Z,29.84
2023-02-16T13:11:25.964Z,30.58
2023-02-16T13:13:59.036Z,30.76
2023-02-16T13:16:46.301Z,29.95
2023-02-16T13:19:14.582Z,29.56
2023-02-16T13:24:50.422Z,29.52
2023-02-16T13:27:22.833Z,30.08
2023-02-16T13:30:23.668Z,29.94
2023-02-16T13:32:56.323Z,29.45
2023-02-16T13:35:42.917Z,29.47
2023-02-16T13:38:27.399Z,29.88
2023-02-16T13:41:03.206Z,30.66
2023-02-16T13:43:32.776Z,30.76
2023-02-16T13:46:03.768Z,30.54
2023-02-16T13:48:38.729Z,29.97
2023-02-16T13:51:12.558Z,29.90
2023-02-16T13:53:42.804Z,29.96
2023-02-16T13:56:14.964Z,29.79
2023-02-16T13:58:41.807Z,28.94
2023-02-16T14:01:43.326Z,28.12
2023-02-16T14:04:33.277Z,28.59
2023-02-16T14:07:03.368Z,28.44
2023-02-16T14:09:33.473Z,28.59
2023-02-16T14:12:03.186Z,28.58
2023-02-16T14:14:56.582Z,28.52
2023-02-16T14:17:32.636Z,28.90
2023-02-16T14:20:15.088Z,28.41
2023-02-16T14:22:53.343Z,28.54
2023-02-16T14:25:20.475Z,29.35
2023-02-16T14:27:51.506Z,29.36
2023-02-16T14:30:24.979Z,29.65
2023-02-16T14:33:03.754Z,29.76
2023-02-16T14:35:34.732Z,29.90
2023-02-16T14:38:17.561Z,29.64
2023-02-16T14:40:50.319Z,29.57
2023-02-16T14:43:47.448Z,29.68
2023-02-16T14:46:32.160Z,30.10
2023-02-16T14:49:14.895Z,29.71
2023-02-16T14:51:41.608Z,29.78
2023-02-16T14:54:38.712Z,30.01
2023-02-16T14:57:32.636Z,30.43
2023-02-16T15:00:04.812Z,31.09
2023-02-16T15:02:36.047Z,31.22
2023-02-16T15:05:30.022Z,31.41
2023-02-16T15:08:18.774Z,31.95
2023-02-16T15:10:49.944Z,32.20
2023-02-16T15:13:31.609Z,32.41
2023-02-16T15:16:02.848Z,32.40
2023-02-16T15:18:38.283Z,32.86
2023-02-16T15:21:05.298Z,32.94
2023-02-16T15:23:36.583Z,33.63
2023-02-16T15:26:19.463Z,34.41
2023-02-16T15:28:54.296Z,34.38
2023-02-16T15:31:30.986Z,35.21
2023-02-16T15:34:01.091Z,35.74
2023-02-16T15:36:35.431Z,36.84
2023-02-16T15:39:09.771Z,37.49
2023-02-16T15:41:39.176Z,37.76
2023-02-16T15:44:15.666Z,38.59
2023-02-16T15:46:43.808Z,38.86
2023-02-16T15:49:32.665Z,39.17
2023-02-16T15:52:01.044Z,39.82
2023-02-16T15:54:35.281Z,39.99
2023-02-16T15:57:06.750Z,40.84
2023-02-16T15:59:58.659Z,41.81
2023-02-16T16:02:36.942Z,42.36
2023-02-16T16:05:07.617Z,42.86
2023-02-16T16:07:37.698Z,43.74
2023-02-16T16:10:20.703Z,44.18
2023-02-16T16:12:49.454Z,45.03
2023-02-16T16:15:22.993Z,45.38
2023-02-16T16:17:51.747Z,45.64
2023-02-16T16:20:31.711Z,46.19
2023-02-16T16:23:01.776Z,46.82
2023-02-16T16:25:34.428Z,46.92
2023-02-16T16:28:03.790Z,47.60
2023-02-16T16:30:34.080Z,47.41
2023-02-16T16:33:15.628Z,49.01
2023-02-16T16:35:48.331Z,49.53
2023-02-16T16:38:39.388Z,50.18
2023-02-16T16:41:06.912Z,49.73
2023-02-16T16:43:37.688Z,50.27
2023-02-16T16:46:07.640Z,50.86
2023-02-16T16:48:37.216Z,51.52
2023-02-16T16:51:15.405Z,52.20
2023-02-16T16:53:45.057Z,52.92
2023-02-16T16:56:13.828Z,53.31
2023-02-16T16:58:41.050Z,53.60
2023-02-16T17:01:10.043Z,53.60
2023-02-16T17:03:36.806Z,53.99
2023-02-16T17:06:04.051Z,55.20
2023-02-16T17:08:31.047Z,55.62
2023-02-16T17:10:57.888Z,56.09
2023-02-16T17:13:24.713Z,56.73
2023-02-16T17:15:58.449Z,57.16
2023-02-16T17:18:25.513Z,57.29
2023-02-16T17:20:52.823Z,57.26
2023-02-16T17:23:21.914Z,57.40
2023-02-16T17:25:50.016Z,57.13
2023-02-16T17:28:18.616Z,57.63
2023-02-16T17:30:46.022Z,58.20
2023-02-16T17:33:12.908Z,58.55
2023-02-16T17:35:42.518Z,58.50
2023-02-16T17:38:17.244Z,58.45
2023-02-16T17:40:46.437Z,59.12
2023-02-16T17:43:15.006Z,59.57
2023-02-16T17:45:42.896Z,60.31
2023-02-16T17:48:21.654Z,60.41
2023-02-16T17:50:49.466Z,60.28
2023-02-16T17:53:18.424Z,60.42
2023-02-16T17:55:47.113Z,61.03
2023-02-16T17:58:15.153Z,61.50
2023-02-16T18:00:42.422Z,62.50
2023-02-16T18:03:09.848Z,62.57
2023-02-16T18:05:37.368Z,62.55
2023-02-16T18:08:05.253Z,62.31
2023-02-16T18:10:37.403Z,62.44
2023-02-16T18:13:06.168Z,62.99
2023-02-16T18:15:33.466Z,63.40
2023-02-16T18:18:00.478Z,63.54
2023-02-16T18:20:27.506Z,64.01
2023-02-16T18:22:54.357Z,64.64
2023-02-16T18:25:21.260Z,64.37
2023-02-16T18:27:48.024Z,65.21
2023-02-16T18:30:16.910Z,65.53
2023-02-16T18:32:45.582Z,65.25
2023-02-16T18:35:13.437Z,65.06
2023-02-16T18:37:40.870Z,64.69
2023-02-16T18:40:10.271Z,64.71
2023-02-16T18:42:37.372Z,65.18
2023-02-16T18:45:05.548Z,65.58
2023-02-16T18:47:32.397Z,65.29
2023-02-16T18:49:59.318Z,65.72
2023-02-16T18:52:26.150Z,66.33
2023-02-16T18:54:53.064Z,66.73
2023-02-16T18:57:20.372Z,66.54
2023-02-16T18:59:47.153Z,67.00
2023-02-16T19:02:13.950Z,66.73
2023-02-16T19:04:40.917Z,66.82
2023-02-16T19:07:07.948Z,66.72
2023-02-16T19:09:34.675Z,67.26
2023-02-16T19:12:01.671Z,67.01
2023-02-16T19:14:28.496Z,67.28
2023-02-16T19:16:55.221Z,67.87
2023-02-16T19:19:22.016Z,67.85
2023-02-16T19:21:48.769Z,68.32
2023-02-16T19:24:15.507Z,68.40
2023-02-16T19:26:42.332Z,68.47
2023-02-16T19:29:09.056Z,68.23
2023-02-16T19:31:35.991Z,68.62
2023-02-16T19:34:03.068Z,68.65
2023-02-16T19:36:32.065Z,69.04
2023-02-16T19:38:59.324Z,69.00
2023-02-16T19:41:35.534Z,69.31
2023-02-16T19:44:02.541Z,69.08
2023-02-16T19:46:30.238Z,69.14
2023-02-16T19:48:58.001Z,69.60
2023-02-16T19:51:26.213Z,69.74
2023-02-16T19:53:53.735Z,70.11
2023-02-16T19:56:24.119Z,69.92
2023-02-16T19:58:52.776Z,69.82
2023-02-16T20:01:22.558Z,69.86
2023-02-16T20:03:51.117Z,69.78
2023-02-16T20:06:21.298Z,69.82
2023-02-16T20:08:49.948Z,70.06
2023-02-16T20:11:18.467Z,70.37
2023-02-16T20:13:45.357Z,70.69
2023-02-16T20:16:14.570Z,70.46
2023-02-16T20:18:41.895Z,70.16
2023-02-16T20:21:12.650Z,70.74
2023-02-16T20:23:40.003Z,70.55
2023-02-16T20:26:11.968Z,70.74
2023-02-16T20:28:39.205Z,70.86
2023-02-16T20:31:17.560Z,70.58
2023-02-16T20:33:45.051Z,71.36
2023-02-16T20:36:12.348Z,71.34
2023-02-16T20:38:39.457Z,71.06
2023-02-16T20:41:06.480Z,71.45
2023-02-16T20:43:34.150Z,71.37
2023-02-16T20:46:06.517Z,71.19
2023-02-16T20:48:34.644Z,71.89
2023-02-16T20:51:04.490Z,71.74
2023-02-16T20:53:32.701Z,72.10
2023-02-16T20:56:05.888Z,72.25
2023-02-16T20:58:33.711Z,72.54
2023-02-16T21:01:01.108Z,72.43
2023-02-16T21:03:28.017Z,72.42
2023-02-16T21:05:55.455Z,72.83
2023-02-16T21:08:22.160Z,73.03
2023-02-16T21:10:49.213Z,72.90
2023-02-16T21:13:16.008Z,73.39
2023-02-16T21:15:42.839Z,73.14
2023-02-16T21:18:10.525Z,72.94
2023-02-16T21:20:37.388Z,72.68
2023-02-16T21:23:04.380Z,73.18
2023-02-16T21:25:31.343Z,72.96
2023-02-16T21:27:58.219Z,73.25
2023-02-16T21:30:25.271Z,73.51
2023-02-16T21:32:52.246Z,73.48
2023-02-16T21:35:19.211Z,73.62
2023-02-16T21:37:46.059Z,73.96
2023-02-16T21:40:32.476Z,74.06
2023-02-16T21:42:59.688Z,73.78
2023-02-16T21:45:26.428Z,74.33
2023-02-16T21:48:11.872Z,74.61
2023-02-16T21:50:41.173Z,74.28
2023-02-16T21:53:09.228Z,74.46
2023-02-16T21:55:57.874Z,74.51
2023-02-16T21:58:30.144Z,75.21
2023-02-16T22:00:57.085Z,75.46
2023-02-16T22:03:23.857Z,75.76
2023-02-16T22:05:50.652Z,75.75
2023-02-16T22:08:18.017Z,75.57
2023-02-16T22:10:45.185Z,75.71
2023-02-16T22:13:12.051Z,76.02
2023-02-16T22:15:39.101Z,76.15
2023-02-16T22:18:06.375Z,76.35
2023-02-16T22:20:33.440Z,76.39
2023-02-16T22:23:00.337Z,76.41
2023-02-16T22:25:27.212Z,76.21
2023-02-16T22:27:54.976Z,76.15
2023-02-16T22:30:21.926Z,76.53
2023-02-16T22:32:51.373Z,76.38
2023-02-16T22:35:18.385Z,76.24
2023-02-16T22:37:45.159Z,76.15
2023-02-16T22:40:12.141Z,76.51
2023-02-16T22:42:39.005Z,76.33
2023-02-16T22:45:06.213Z,76.54
2023-02-16T22:47:33.108Z,76.41
2023-02-16T22:49:59.824Z,76.42
2023-02-16T22:52:27.060Z,76.62
2023-02-16T22:54:53.906Z,76.79
2023-02-16T22:57:20.646Z,76.63
2023-02-16T22:59:47.401Z,76.41
2023-02-16T23:02:14.203Z,76.39
2023-02-16T23:04:43.229Z,77.07
2023-02-16T23:07:10.395Z,77.22
2023-02-16T23:09:37.390Z,77.42
2023-02-16T23:12:04.302Z,77.24
2023-02-16T23:14:31.137Z,77.46
2023-02-16T23:16:57.840Z,77.73
2023-02-16T23:19:26.811Z,77.41
2023-02-16T23:21:54.152Z,77.46
2023-02-16T23:24:23.328Z,77.50
2023-02-16T23:26:50.957Z,77.34
2023-02-16T23:29:17.856Z,77.23
2023-02-16T23:31:49.498Z,77.89
2023-02-16T23:34:17.255Z,77.65
2023-02-16T23:36:44.400Z,77.54
2023-02-16T23:39:14.218Z,77.44
2023-02-16T23:41:41.940Z,77.19
2023-02-16T23:44:11.785Z,77.32
2023-02-16T23:46:38.633Z,77.36
2023-02-16T23:49:05.500Z,77.42
2023-02-16T23:51:32.254Z,77.51
2023-02-16T23:53:59.016Z,77.76
2023-02-16T23:56:27.820Z,77.98
2023-02-16T23:58:59.830Z,77.89
